Time;durP1;ratioP1;P1;durP2;ratioP2;P2;SDS_P1;SDS_P2;PMS_P1;PMS_P2;Temp;Humidity;BMP_temperature;BMP_pressure;BME280_temperature;BME280_humidity;BME280_pressure;Samples;Min_cycle;Max_cycle;Signal;HPM_P1;HPM_P2
2023/12/19 00:00:43;;;;;;;58.00;28.67;;;6.40;99.90;;;;;;5003633;28;20056;-85
2023/12/19 00:03:09;;;;;;;52.50;27.30;;;6.40;99.90;;;;;;4987160;28;20106;-85
2023/12/19 00:05:35;;;;;;;53.63;25.80;;;6.30;99.90;;;;;;4987122;28;20086;-85
2023/12/19 00:08:01;;;;;;;57.23;27.87;;;6.40;99.90;;;;;;4986867;28;20022;-85
2023/12/19 00:10:26;;;;;;;49.47;28.60;;;6.30;99.90;;;;;;4986849;28;20025;-84
2023/12/19 00:12:52;;;;;;;50.13;26.73;;;6.30;99.90;;;;;;4987217;28;20162;-84
2023/12/19 00:15:22;;;;;;;46.10;26.07;;;6.30;99.90;;;;;;4987084;28;20029;-84
2023/12/19 00:17:48;;;;;;;49.10;24.23;;;6.40;99.90;;;;;;5004971;28;20045;-84
2023/12/19 00:20:14;;;;;;;52.80;27.23;;;6.40;99.90;;;;;;4986609;28;20034;-84
2023/12/19 00:22:39;;;;;;;58.70;30.10;;;6.40;99.90;;;;;;4986657;28;20014;-85
2023/12/19 00:25:05;;;;;;;53.53;28.63;;;6.40;99.90;;;;;;4986707;28;20374;-85
2023/12/19 00:27:31;;;;;;;60.97;29.37;;;6.40;99.90;;;;;;4986147;28;20515;-84
2023/12/19 00:29:57;;;;;;;47.70;25.90;;;6.40;99.90;;;;;;4986433;28;20030;-85
2023/12/19 00:32:22;;;;;;;50.37;27.33;;;6.40;99.90;;;;;;4986705;28;20046;-84
2023/12/19 00:34:48;;;;;;;47.87;26.27;;;6.40;99.90;;;;;;4986344;28;20083;-84
2023/12/19 00:37:13;;;;;;;57.57;29.00;;;6.40;99.90;;;;;;5003855;28;20034;-84
2023/12/19 00:39:39;;;;;;;54.43;28.37;;;6.40;99.90;;;;;;4986346;28;20058;-84
2023/12/19 00:42:05;;;;;;;55.73;28.23;;;6.40;99.90;;;;;;5003780;28;20029;-84
2023/12/19 00:44:31;;;;;;;52.53;27.93;;;6.40;99.90;;;;;;4986483;28;20030;-84
2023/12/19 00:46:56;;;;;;;54.77;28.03;;;6.40;99.90;;;;;;4986494;28;20118;-84
2023/12/19 00:49:22;;;;;;;46.03;26.90;;;6.40;99.90;;;;;;4986171;28;20030;-83
2023/12/19 00:51:48;;;;;;;53.17;27.90;;;6.40;99.90;;;;;;4985844;28;20384;-85
2023/12/19 00:54:13;;;;;;;52.70;27.23;;;6.40;99.90;;;;;;4986278;28;20023;-85
2023/12/19 00:56:42;;;;;;;53.60;25.83;;;6.40;99.90;;;;;;4986945;28;20033;-84
2023/12/19 00:59:08;;;;;;;57.30;28.77;;;6.40;99.90;;;;;;5003480;28;20023;-85
2023/12/19 01:01:33;;;;;;;52.60;27.63;;;6.40;99.90;;;;;;4986184;28;20023;-85
2023/12/19 01:04:00;;;;;;;48.87;25.00;;;6.40;99.90;;;;;;4986036;28;20114;-85
2023/12/19 01:06:26;;;;;;;53.30;27.03;;;6.40;99.90;;;;;;5003647;28;20026;-85
2023/12/19 01:08:53;;;;;;;58.90;27.93;;;6.50;99.90;;;;;;4985613;28;20168;-85
2023/12/19 01:11:19;;;;;;;53.00;26.40;;;6.50;99.90;;;;;;4986143;28;20038;-85
2023/12/19 01:13:45;;;;;;;46.83;25.43;;;6.50;99.90;;;;;;4986052;28;20030;-83
2023/12/19 01:16:13;;;;;;;54.07;27.30;;;6.50;99.90;;;;;;5001932;28;20098;-84
2023/12/19 01:18:39;;;;;;;53.30;27.20;;;6.50;99.90;;;;;;5003425;28;20057;-83
2023/12/19 01:21:05;;;;;;;50.87;26.90;;;6.50;99.90;;;;;;5001631;28;20026;-84
2023/12/19 01:23:30;;;;;;;49.87;26.80;;;6.50;99.90;;;;;;4985578;28;20034;-83
2023/12/19 01:25:56;;;;;;;49.20;24.40;;;6.50;99.90;;;;;;4985609;28;20047;-84
2023/12/19 01:28:22;;;;;;;57.00;27.27;;;6.60;99.90;;;;;;4985551;28;20023;-84
2023/12/19 01:30:47;;;;;;;51.57;25.90;;;6.60;99.90;;;;;;4985815;28;20462;-84
2023/12/19 01:33:13;;;;;;;52.77;27.87;;;6.60;99.90;;;;;;4985352;28;20029;-83
2023/12/19 01:35:39;;;;;;;51.50;27.77;;;6.60;99.90;;;;;;4985330;28;20033;-84
2023/12/19 01:38:04;;;;;;;47.67;25.27;;;6.60;99.90;;;;;;4985216;28;20026;-84
2023/12/19 01:40:31;;;;;;;57.60;27.77;;;6.60;99.90;;;;;;4985067;28;20022;-84
2023/12/19 01:43:00;;;;;;;47.17;25.70;;;6.60;99.90;;;;;;4985575;28;20026;-85
2023/12/19 01:45:28;;;;;;;55.93;26.07;;;6.70;99.90;;;;;;5002900;28;20053;-84
2023/12/19 01:47:54;;;;;;;42.60;24.50;;;6.70;99.90;;;;;;4985495;28;20053;-84
2023/12/19 01:50:20;;;;;;;51.83;26.73;;;6.70;99.90;;;;;;4985374;28;20026;-85
2023/12/19 01:52:52;;;;;;;48.60;26.03;;;6.70;99.90;;;;;;4985444;28;20018;-85
2023/12/19 01:55:19;;;;;;;47.90;26.03;;;6.70;99.90;;;;;;4985389;28;20376;-84
2023/12/19 01:57:44;;;;;;;51.97;25.67;;;6.70;99.90;;;;;;4985252;28;20042;-85
2023/12/19 02:00:14;;;;;;;58.00;27.57;;;6.70;99.90;;;;;;4985254;28;20068;-85
2023/12/19 02:02:44;;;;;;;52.93;27.00;;;6.70;99.90;;;;;;5001488;28;20018;-85
2023/12/19 02:05:10;;;;;;;53.93;28.00;;;6.80;99.90;;;;;;5003231;28;20018;-85
2023/12/19 02:07:35;;;;;;;45.80;24.60;;;6.80;99.90;;;;;;4985114;28;20028;-85
2023/12/19 02:10:01;;;;;;;55.47;28.47;;;6.80;99.90;;;;;;5001773;28;20046;-85
2023/12/19 02:12:27;;;;;;;49.00;25.97;;;6.80;99.90;;;;;;4985154;28;20027;-85
2023/12/19 02:14:54;;;;;;;54.93;27.30;;;6.70;99.90;;;;;;5003196;28;20019;-85
2023/12/19 02:17:21;;;;;;;50.03;26.77;;;6.70;99.90;;;;;;4985227;28;20038;-84
2023/12/19 02:19:48;;;;;;;51.23;26.13;;;6.70;99.90;;;;;;5002771;28;20061;-84
2023/12/19 02:22:14;;;;;;;47.03;24.37;;;6.80;99.90;;;;;;4985190;28;20034;-84
2023/12/19 02:24:40;;;;;;;54.27;27.60;;;6.80;99.90;;;;;;4985284;28;20093;-84
2023/12/19 02:27:06;;;;;;;51.67;26.57;;;6.80;99.90;;;;;;5002910;28;20038;-84
2023/12/19 02:29:32;;;;;;;54.67;27.40;;;6.80;99.90;;;;;;4985082;28;20166;-84
2023/12/19 02:31:58;;;;;;;51.13;26.63;;;6.80;99.90;;;;;;5002266;28;20027;-83
2023/12/19 02:34:24;;;;;;;55.97;27.20;;;6.70;99.90;;;;;;4984473;28;20026;-84
2023/12/19 02:36:50;;;;;;;48.43;25.07;;;6.80;99.90;;;;;;5000919;28;20092;-84
2023/12/19 02:39:16;;;;;;;46.93;24.93;;;6.70;99.90;;;;;;4985172;28;20023;-85
2023/12/19 02:41:42;;;;;;;47.50;26.00;;;6.80;99.90;;;;;;4984997;28;20390;-85
2023/12/19 02:44:07;;;;;;;51.97;26.53;;;6.80;99.90;;;;;;4985412;28;20054;-84
2023/12/19 02:46:33;;;;;;;51.47;27.03;;;6.80;99.90;;;;;;5001241;28;20061;-84
2023/12/19 02:48:59;;;;;;;48.63;25.80;;;6.80;99.90;;;;;;4984673;28;20058;-84
2023/12/19 02:51:26;;;;;;;52.43;26.77;;;6.80;99.90;;;;;;5001254;28;20073;-85
2023/12/19 02:53:53;;;;;;;46.90;23.33;;;6.80;99.90;;;;;;5006077;28;20426;-85
2023/12/19 02:56:18;;;;;;;44.87;24.17;;;6.80;99.90;;;;;;4988335;28;20026;-84
2023/12/19 02:58:44;;;;;;;47.33;24.87;;;6.80;99.90;;;;;;5005746;28;20037;-84
2023/12/19 03:01:10;;;;;;;52.33;25.97;;;6.80;99.90;;;;;;4988821;28;20034;-84
2023/12/19 03:03:36;;;;;;;51.60;26.43;;;6.90;99.90;;;;;;4988261;28;20080;-84
2023/12/19 03:06:02;;;;;;;52.47;27.20;;;6.90;99.90;;;;;;4987982;28;20050;-85
2023/12/19 03:08:27;;;;;;;56.70;27.17;;;6.90;99.90;;;;;;4988055;28;20034;-84
2023/12/19 03:10:53;;;;;;;61.50;26.83;;;6.80;99.90;;;;;;5004386;28;20022;-84
2023/12/19 03:13:19;;;;;;;50.83;25.37;;;6.90;99.90;;;;;;4988031;28;20486;-85
2023/12/19 03:15:45;;;;;;;48.97;26.83;;;6.90;99.90;;;;;;4987852;28;20041;-85
2023/12/19 03:18:10;;;;;;;57.37;27.27;;;6.90;99.90;;;;;;4987980;28;20030;-84
2023/12/19 03:20:36;;;;;;;52.60;27.67;;;6.90;99.90;;;;;;5004000;28;20026;-84
2023/12/19 03:23:02;;;;;;;54.83;27.40;;;6.90;99.90;;;;;;5005761;28;20364;-85
2023/12/19 03:25:28;;;;;;;48.03;26.83;;;6.90;99.90;;;;;;4987747;28;20355;-84
2023/12/19 03:27:54;;;;;;;57.13;28.33;;;6.90;99.90;;;;;;4984318;28;20093;-84
2023/12/19 03:30:19;;;;;;;56.27;28.27;;;6.90;99.90;;;;;;4984196;28;20045;-84
2023/12/19 03:32:48;;;;;;;61.23;26.40;;;6.90;99.90;;;;;;4984820;28;20042;-84
2023/12/19 03:35:14;;;;;;;55.43;28.30;;;6.90;99.90;;;;;;4983946;28;20026;-85
2023/12/19 03:37:39;;;;;;;58.03;28.30;;;7.00;99.90;;;;;;5000617;28;20042;-84
2023/12/19 03:40:06;;;;;;;60.53;29.53;;;6.90;99.90;;;;;;4985701;28;20022;-85
2023/12/19 03:42:33;;;;;;;53.17;28.47;;;6.90;99.90;;;;;;4983804;28;20030;-85
2023/12/19 03:44:59;;;;;;;51.97;27.63;;;7.00;99.90;;;;;;4985681;28;20037;-84
2023/12/19 03:47:25;;;;;;;53.07;26.83;;;7.00;99.90;;;;;;4984131;28;20019;-85
2023/12/19 03:49:51;;;;;;;48.87;25.67;;;7.00;99.90;;;;;;4984124;28;20030;-85
2023/12/19 03:52:17;;;;;;;43.20;24.63;;;7.00;99.90;;;;;;4984014;28;20027;-85
2023/12/19 03:54:43;;;;;;;47.33;25.40;;;7.00;99.90;;;;;;4983979;28;20023;-84
2023/12/19 03:57:08;;;;;;;43.00;24.30;;;7.00;99.90;;;;;;4985587;28;20030;-85
2023/12/19 03:59:34;;;;;;;44.87;24.37;;;7.00;99.90;;;;;;4985360;28;20074;-85
2023/12/19 04:02:00;;;;;;;46.27;23.50;;;7.00;99.90;;;;;;4983534;28;20022;-85
2023/12/19 04:04:26;;;;;;;38.10;21.63;;;7.10;99.90;;;;;;4983454;28;20058;-87
2023/12/19 04:06:51;;;;;;;47.13;25.23;;;7.00;99.90;;;;;;5000116;28;20053;-85
2023/12/19 04:09:17;;;;;;;39.87;22.10;;;7.00;99.90;;;;;;4985268;28;20031;-84
2023/12/19 04:11:47;;;;;;;38.53;21.30;;;7.10;99.90;;;;;;4983490;28;20030;-84
2023/12/19 04:14:16;;;;;;;40.83;22.27;;;7.10;99.90;;;;;;5000352;28;20031;-83
2023/12/19 04:16:42;;;;;;;39.13;21.40;;;7.10;99.90;;;;;;4983010;28;20113;-84
2023/12/19 04:19:09;;;;;;;45.13;23.10;;;7.10;99.90;;;;;;4983525;28;20511;-84
2023/12/19 04:21:36;;;;;;;36.07;20.23;;;7.10;99.90;;;;;;4983517;28;20073;-84
2023/12/19 04:24:03;;;;;;;38.43;20.97;;;7.10;99.90;;;;;;4984681;28;20504;-83
2023/12/19 04:26:29;;;;;;;37.63;21.50;;;7.10;99.90;;;;;;4983123;28;20043;-83
2023/12/19 04:28:55;;;;;;;40.23;21.90;;;7.10;99.90;;;;;;4983792;28;20049;-83
2023/12/19 04:31:20;;;;;;;35.43;19.80;;;7.10;99.90;;;;;;4983742;28;20451;-83
2023/12/19 04:33:46;;;;;;;38.77;20.27;;;7.10;99.90;;;;;;4983397;28;20391;-83
2023/12/19 04:36:11;;;;;;;38.43;20.33;;;7.10;99.90;;;;;;4984236;28;20038;-83
2023/12/19 04:38:38;;;;;;;34.17;19.33;;;7.10;99.90;;;;;;4983552;28;20513;-86
2023/12/19 04:41:04;;;;;;;37.00;20.70;;;7.00;99.90;;;;;;4984471;28;20039;-83
2023/12/19 04:43:30;;;;;;;36.10;19.80;;;7.10;99.90;;;;;;4983350;28;20146;-83
2023/12/19 04:45:55;;;;;;;33.67;18.47;;;7.00;99.90;;;;;;4999495;28;20023;-85
2023/12/19 04:48:21;;;;;;;31.70;18.67;;;7.10;99.90;;;;;;4983282;28;20037;-84
2023/12/19 04:50:47;;;;;;;34.73;18.90;;;7.10;99.90;;;;;;4983283;28;20031;-85
2023/12/19 04:53:12;;;;;;;32.03;18.07;;;7.00;99.90;;;;;;4984767;28;20023;-85
2023/12/19 04:55:38;;;;;;;27.07;16.80;;;7.10;99.90;;;;;;4983953;28;20037;-84
2023/12/19 04:58:04;;;;;;;33.57;18.37;;;7.10;99.90;;;;;;4998816;28;20127;-84
2023/12/19 05:00:29;;;;;;;28.30;15.80;;;7.10;99.90;;;;;;4982745;28;20046;-84
2023/12/19 05:02:55;;;;;;;31.80;16.87;;;7.10;99.90;;;;;;4982842;28;20019;-85
2023/12/19 05:05:21;;;;;;;28.63;16.37;;;7.10;99.90;;;;;;4984485;28;20015;-84
2023/12/19 05:07:47;;;;;;;25.07;15.20;;;7.00;99.90;;;;;;4982874;28;20029;-84
2023/12/19 05:10:12;;;;;;;30.07;16.33;;;7.00;99.90;;;;;;4999034;28;20027;-85
2023/12/19 05:12:38;;;;;;;27.30;16.33;;;7.00;99.90;;;;;;4982530;28;20490;-85
2023/12/19 05:15:05;;;;;;;28.23;16.40;;;7.00;99.90;;;;;;4983062;28;20019;-84
2023/12/19 05:17:31;;;;;;;29.10;15.50;;;7.00;99.90;;;;;;4982418;28;20062;-84
2023/12/19 05:19:58;;;;;;;27.00;14.53;;;7.10;99.90;;;;;;4998947;28;20030;-85
2023/12/19 05:22:24;;;;;;;30.37;16.07;;;7.00;99.90;;;;;;4982693;28;20023;-84
2023/12/19 05:24:49;;;;;;;30.13;16.40;;;7.00;99.90;;;;;;4982740;28;20074;-84
2023/12/19 05:27:15;;;;;;;32.20;18.47;;;7.00;99.90;;;;;;4982155;28;20049;-83
2023/12/19 05:29:41;;;;;;;34.30;18.33;;;7.00;99.90;;;;;;4984190;28;20030;-83
2023/12/19 05:32:06;;;;;;;35.77;19.67;;;7.10;99.90;;;;;;4994200;28;20026;-84
2023/12/19 05:34:32;;;;;;;35.10;19.50;;;7.10;99.90;;;;;;5001373;28;20065;-84
2023/12/19 05:36:58;;;;;;;41.27;21.93;;;7.10;99.90;;;;;;5001880;28;20109;-84
2023/12/19 05:39:24;;;;;;;46.23;23.33;;;7.10;99.90;;;;;;5003154;28;20033;-82
2023/12/19 05:41:51;;;;;;;46.50;22.60;;;7.10;99.90;;;;;;5001955;28;20026;-83
2023/12/19 05:44:17;;;;;;;40.07;21.97;;;7.10;99.90;;;;;;5002074;28;20018;-82
2023/12/19 05:46:43;;;;;;;48.33;23.90;;;7.10;99.90;;;;;;5002017;28;20110;-83
2023/12/19 05:49:09;;;;;;;37.67;21.13;;;7.10;99.90;;;;;;5003669;28;20010;-83
2023/12/19 05:51:39;;;;;;;44.57;22.27;;;7.10;99.90;;;;;;5001730;28;20035;-82
2023/12/19 05:54:05;;;;;;;45.13;24.07;;;7.20;99.90;;;;;;5003028;28;20023;-83
2023/12/19 05:56:31;;;;;;;42.30;21.43;;;7.20;99.90;;;;;;5002992;28;20034;-83
2023/12/19 05:58:57;;;;;;;45.80;22.93;;;7.20;99.90;;;;;;5001236;28;20038;-83
2023/12/19 06:01:23;;;;;;;41.47;23.93;;;7.20;99.90;;;;;;5001770;28;20037;-83
2023/12/19 06:03:49;;;;;;;48.53;25.37;;;7.20;99.90;;;;;;5001507;28;20041;-86
2023/12/19 06:06:15;;;;;;;50.17;26.40;;;7.20;99.90;;;;;;5001840;28;20382;-82
2023/12/19 06:08:42;;;;;;;49.73;24.43;;;7.20;99.90;;;;;;5001514;28;20026;-82
2023/12/19 06:11:09;;;;;;;51.10;25.10;;;7.20;99.90;;;;;;5001503;28;20026;-82
2023/12/19 06:13:34;;;;;;;43.33;23.37;;;7.30;99.90;;;;;;5012949;28;20029;-81
2023/12/19 06:16:00;;;;;;;46.80;24.10;;;7.30;99.90;;;;;;5006797;28;20026;-81
2023/12/19 06:18:26;;;;;;;47.67;25.37;;;7.30;99.90;;;;;;5002422;28;20023;-81
2023/12/19 06:20:51;;;;;;;48.27;23.43;;;7.30;99.90;;;;;;5000987;28;20019;-81
2023/12/19 06:23:17;;;;;;;44.63;23.13;;;7.30;99.90;;;;;;5001214;28;20092;-82
2023/12/19 06:25:43;;;;;;;52.27;26.60;;;7.30;99.90;;;;;;5003005;28;20058;-82
2023/12/19 06:28:08;;;;;;;50.80;25.20;;;7.30;99.90;;;;;;5007270;28;20041;-82
2023/12/19 06:30:36;;;;;;;45.83;26.50;;;7.30;99.90;;;;;;5025575;28;20073;-82
2023/12/19 06:33:01;;;;;;;48.37;24.40;;;7.30;99.90;;;;;;5025429;28;20022;-83
2023/12/19 06:35:30;;;;;;;46.87;24.63;;;7.30;99.90;;;;;;5007364;28;20082;-82
2023/12/19 06:37:56;;;;;;;47.43;25.07;;;7.30;99.90;;;;;;5005485;28;20050;-82
2023/12/19 06:40:23;;;;;;;47.47;24.43;;;7.30;99.90;;;;;;5004232;28;20019;-81
2023/12/19 06:42:49;;;;;;;49.47;26.50;;;7.30;99.90;;;;;;5006630;28;20026;-82
2023/12/19 06:45:14;;;;;;;43.00;22.90;;;7.40;99.90;;;;;;4988701;28;20062;-82
2023/12/19 06:47:40;;;;;;;44.67;23.17;;;7.40;99.90;;;;;;5005866;28;20027;-82
2023/12/19 06:50:06;;;;;;;47.53;24.67;;;7.30;99.90;;;;;;4988411;28;20029;-82
2023/12/19 06:52:32;;;;;;;47.00;25.87;;;7.40;99.90;;;;;;4988437;28;20364;-82
2023/12/19 06:54:58;;;;;;;44.10;23.97;;;7.40;99.90;;;;;;5006252;28;20074;-81
2023/12/19 06:57:24;;;;;;;47.70;25.43;;;7.40;99.90;;;;;;4988385;28;20042;-82
2023/12/19 06:59:50;;;;;;;46.67;25.03;;;7.40;99.90;;;;;;4990639;28;20382;-81
2023/12/19 07:02:16;;;;;;;48.27;24.97;;;7.40;99.90;;;;;;5008080;28;20025;-81
2023/12/19 07:04:42;;;;;;;51.17;25.43;;;7.40;99.90;;;;;;5007741;28;20037;-81
2023/12/19 07:07:08;;;;;;;54.23;27.93;;;7.40;99.90;;;;;;5007457;28;20021;-81
2023/12/19 07:09:34;;;;;;;55.20;30.10;;;7.40;99.90;;;;;;5006551;28;20443;-81
2023/12/19 07:12:00;;;;;;;50.33;26.53;;;7.40;99.90;;;;;;5024636;28;20085;-81
2023/12/19 07:14:27;;;;;;;51.67;27.10;;;7.50;99.90;;;;;;5007443;28;20478;-81
2023/12/19 07:16:52;;;;;;;49.37;26.70;;;7.40;99.90;;;;;;5025120;28;20041;-82
2023/12/19 07:19:19;;;;;;;53.17;27.40;;;7.40;99.90;;;;;;5007413;28;20026;-82
2023/12/19 07:21:45;;;;;;;56.33;28.67;;;7.50;99.90;;;;;;5007308;28;20026;-81
2023/12/19 07:24:11;;;;;;;57.20;29.60;;;7.50;99.90;;;;;;5025511;28;20026;-81
2023/12/19 07:26:37;;;;;;;54.33;28.93;;;7.50;99.90;;;;;;5007869;28;20096;-81
2023/12/19 07:29:07;;;;;;;59.90;31.17;;;7.50;99.90;;;;;;5009610;28;20036;-81
2023/12/19 07:31:34;;;;;;;52.53;28.83;;;7.50;99.90;;;;;;5009686;28;20046;-83
2023/12/19 07:34:05;;;;;;;58.37;30.00;;;7.50;99.90;;;;;;5010043;28;20030;-81
2023/12/19 07:36:32;;;;;;;60.00;30.67;;;7.50;99.90;;;;;;5009975;28;20050;-82
2023/12/19 07:38:58;;;;;;;57.17;30.63;;;7.50;99.90;;;;;;5005844;28;20026;-81
2023/12/19 07:41:26;;;;;;;64.50;34.20;;;7.60;99.90;;;;;;5006478;28;20025;-81
2023/12/19 07:43:53;;;;;;;69.60;36.07;;;7.50;99.90;;;;;;5007110;28;20022;-81
2023/12/19 07:46:19;;;;;;;71.47;35.40;;;7.60;99.90;;;;;;5006812;28;20022;-80
2023/12/19 07:48:45;;;;;;;73.43;38.47;;;7.50;99.90;;;;;;5007012;28;20396;-81
2023/12/19 07:51:19;;;;;;;75.23;39.73;;;7.60;99.90;;;;;;5006786;28;20096;-80
2023/12/19 07:53:45;;;;;;;83.67;40.57;;;7.60;99.90;;;;;;5006925;28;20030;-80
2023/12/19 07:56:11;;;;;;;78.77;40.67;;;7.60;99.90;;;;;;5006527;28;20066;-80
2023/12/19 07:58:37;;;;;;;76.20;37.30;;;7.60;99.90;;;;;;5006670;28;20021;-80
2023/12/19 08:01:02;;;;;;;75.17;37.37;;;7.60;99.90;;;;;;5006482;28;20021;-80
2023/12/19 08:03:29;;;;;;;79.43;38.00;;;7.60;99.90;;;;;;5006789;28;20037;-81
2023/12/19 08:05:56;;;;;;;71.77;38.33;;;7.60;99.90;;;;;;5006807;28;20056;-80
2023/12/19 08:08:25;;;;;;;74.40;38.00;;;7.70;99.90;;;;;;5024462;28;20022;-81
2023/12/19 08:10:52;;;;;;;71.03;37.53;;;7.60;99.90;;;;;;5024490;28;20022;-81
2023/12/19 08:13:20;;;;;;;82.67;40.27;;;7.70;99.90;;;;;;5006229;28;20026;-81
2023/12/19 08:15:49;;;;;;;74.40;38.17;;;7.70;99.90;;;;;;5006261;28;20033;-81
2023/12/19 08:18:16;;;;;;;73.50;38.37;;;7.70;99.90;;;;;;5006309;28;20030;-82
2023/12/19 08:20:42;;;;;;;65.83;36.23;;;7.70;99.90;;;;;;5023752;28;20081;-82
2023/12/19 08:23:11;;;;;;;82.30;38.43;;;7.70;99.90;;;;;;5006393;28;20033;-81
2023/12/19 08:25:38;;;;;;;76.07;39.23;;;7.70;99.90;;;;;;5006182;28;20029;-81
2023/12/19 08:28:05;;;;;;;70.37;36.07;;;7.80;99.90;;;;;;5006398;28;20034;-81
2023/12/19 08:30:31;;;;;;;71.00;35.70;;;7.80;99.90;;;;;;5006200;28;20057;-82
2023/12/19 08:32:57;;;;;;;74.20;36.17;;;7.80;99.90;;;;;;5005935;28;20433;-82
2023/12/19 08:35:23;;;;;;;69.27;35.83;;;7.80;99.90;;;;;;5005619;28;20033;-81
2023/12/19 08:37:50;;;;;;;69.27;36.60;;;7.80;99.90;;;;;;5005682;28;20050;-81
2023/12/19 08:40:16;;;;;;;71.20;37.70;;;7.80;99.90;;;;;;5006252;28;20018;-81
2023/12/19 08:42:42;;;;;;;71.67;34.33;;;7.80;99.90;;;;;;5023593;28;20025;-81
2023/12/19 08:45:19;;;;;;;77.40;37.63;;;7.80;99.90;;;;;;5005944;28;20120;-81
2023/12/19 08:47:45;;;;;;;74.57;38.43;;;7.80;99.90;;;;;;5005668;28;20038;-80
2023/12/19 08:50:12;;;;;;;67.30;35.83;;;7.90;99.90;;;;;;5005755;28;20026;-81
2023/12/19 08:52:39;;;;;;;67.70;36.13;;;7.90;99.90;;;;;;5005482;28;20089;-81
2023/12/19 08:55:07;;;;;;;63.93;35.83;;;7.90;99.90;;;;;;5005477;28;20053;-81
2023/12/19 08:57:43;;;;;;;67.77;35.97;;;7.90;99.90;;;;;;5005524;28;20034;-80
2023/12/19 09:00:16;;;;;;;62.53;35.03;;;7.90;99.90;;;;;;5023408;28;20022;-82
2023/12/19 09:02:46;;;;;;;58.83;32.23;;;7.90;99.90;;;;;;5005541;28;20026;-81
2023/12/19 09:05:18;;;;;;;63.83;34.20;;;7.90;99.90;;;;;;5005490;28;20022;-82
2023/12/19 09:07:48;;;;;;;57.40;32.50;;;7.90;99.90;;;;;;5005333;28;20042;-82
2023/12/19 09:10:15;;;;;;;63.50;33.63;;;8.00;99.90;;;;;;5005463;28;20029;-81
2023/12/19 09:12:41;;;;;;;55.67;32.23;;;8.00;99.90;;;;;;5005011;28;20018;-82
2023/12/19 09:15:08;;;;;;;51.77;29.33;;;8.00;99.90;;;;;;5023651;28;20029;-82
2023/12/19 09:17:35;;;;;;;54.67;29.43;;;8.00;99.90;;;;;;5005471;28;20049;-81
2023/12/19 09:20:05;;;;;;;51.83;28.93;;;8.00;99.90;;;;;;5005331;28;20022;-82
2023/12/19 09:22:31;;;;;;;46.97;27.20;;;8.00;99.90;;;;;;5004899;28;20022;-82
2023/12/19 09:24:57;;;;;;;54.47;29.23;;;8.00;99.90;;;;;;5005327;28;20049;-82
2023/12/19 09:27:24;;;;;;;53.20;29.87;;;8.00;99.90;;;;;;5004960;28;20530;-81
2023/12/19 09:29:50;;;;;;;48.80;28.53;;;8.00;99.90;;;;;;5005381;28;20026;-82
2023/12/19 09:32:16;;;;;;;53.63;28.43;;;8.00;99.90;;;;;;5005590;28;20020;-82
2023/12/19 09:34:42;;;;;;;48.53;26.93;;;8.00;99.90;;;;;;5004669;28;20425;-82
2023/12/19 09:37:07;;;;;;;43.57;26.73;;;7.90;99.90;;;;;;5023044;28;20052;-83
2023/12/19 09:39:33;;;;;;;43.77;25.40;;;8.00;99.90;;;;;;5023270;28;20026;-81
2023/12/19 09:41:59;;;;;;;43.13;26.37;;;8.00;99.90;;;;;;5005190;28;20025;-81
2023/12/19 09:44:28;;;;;;;41.57;24.23;;;8.00;99.90;;;;;;5004912;28;20025;-82
2023/12/19 09:46:55;;;;;;;43.27;23.90;;;8.00;99.90;;;;;;5004843;28;20018;-82
2023/12/19 09:49:23;;;;;;;38.33;22.47;;;8.00;99.90;;;;;;5005252;28;20018;-82
2023/12/19 09:51:55;;;;;;;43.13;23.80;;;8.00;99.90;;;;;;5004659;28;20437;-82
2023/12/19 09:54:22;;;;;;;39.60;23.40;;;8.00;99.90;;;;;;5022538;28;20082;-82
2023/12/19 09:56:49;;;;;;;39.40;22.60;;;8.00;99.90;;;;;;5022517;28;20046;-82
2023/12/19 09:59:17;;;;;;;45.30;25.27;;;8.00;99.90;;;;;;5004920;28;20117;-82
2023/12/19 10:01:43;;;;;;;41.47;22.93;;;8.00;99.90;;;;;;5007266;28;20030;-81
2023/12/19 10:04:13;;;;;;;40.40;23.03;;;8.00;99.90;;;;;;5008284;28;20040;-81
2023/12/19 10:06:58;;;;;;;42.63;25.10;;;8.00;99.90;;;;;;5009003;28;20033;-81
2023/12/19 10:09:24;;;;;;;41.70;23.93;;;8.00;99.90;;;;;;5026585;28;20030;-81
2023/12/19 10:12:10;;;;;;;42.17;25.07;;;8.00;99.90;;;;;;5009179;28;20098;-82
2023/12/19 10:14:36;;;;;;;41.03;23.97;;;8.00;99.90;;;;;;5026589;28;20548;-82
2023/12/19 10:17:05;;;;;;;43.83;23.40;;;8.00;99.90;;;;;;5008271;28;20034;-83
2023/12/19 10:19:33;;;;;;;37.87;22.37;;;8.00;99.90;;;;;;5008755;28;20018;-80
2023/12/19 10:22:11;;;;;;;38.63;23.23;;;8.00;99.90;;;;;;5008499;28;20022;-81
2023/12/19 10:24:36;;;;;;;45.07;23.67;;;8.00;99.90;;;;;;5008473;28;20025;-81
2023/12/19 10:27:05;;;;;;;37.13;22.73;;;8.00;99.90;;;;;;5008237;28;20517;-82
2023/12/19 10:29:38;;;;;;;44.50;25.07;;;8.00;99.90;;;;;;5008516;28;20072;-82
2023/12/19 10:32:19;;;;;;;39.37;21.67;;;8.10;99.90;;;;;;5008719;28;20022;-81
2023/12/19 10:34:55;;;;;;;38.63;21.43;;;8.10;99.90;;;;;;5025680;28;20097;-82
2023/12/19 10:37:20;;;;;;;34.57;21.73;;;8.10;99.90;;;;;;5025763;28;20093;-81
2023/12/19 10:39:47;;;;;;;42.87;23.03;;;8.10;99.90;;;;;;5026013;28;20022;-81
2023/12/19 10:42:13;;;;;;;39.47;23.00;;;8.10;99.90;;;;;;5025816;28;20034;-82
2023/12/19 10:44:39;;;;;;;37.07;21.27;;;8.10;99.90;;;;;;5008308;28;20052;-81
2023/12/19 10:47:07;;;;;;;44.53;25.10;;;8.10;99.90;;;;;;5026017;28;20540;-83
2023/12/19 10:49:34;;;;;;;42.90;23.63;;;8.10;99.90;;;;;;5008105;28;20176;-83
2023/12/19 10:52:08;;;;;;;35.43;21.67;;;8.10;99.90;;;;;;5025613;28;20018;-82
2023/12/19 10:54:35;;;;;;;39.55;23.15;;;8.10;99.90;;;;;;5008222;28;20029;-82
2023/12/19 10:57:08;;;;;;;34.80;21.50;;;8.10;99.90;;;;;;5025626;28;20045;-82
2023/12/19 10:59:58;;;;;;;42.80;23.47;;;8.10;99.90;;;;;;5025618;28;20026;-81
2023/12/19 11:02:48;;;;;;;38.30;22.47;;;8.10;99.90;;;;;;5008295;28;20060;-81
2023/12/19 11:05:46;;;;;;;41.03;22.97;;;8.10;99.90;;;;;;5007599;28;20124;-81
2023/12/19 11:08:19;;;;;;;36.13;21.40;;;8.20;99.90;;;;;;5021258;28;20034;-81
2023/12/19 11:11:18;;;;;;;35.37;21.57;;;8.20;99.90;;;;;;5025484;28;20045;-82
2023/12/19 11:13:45;;;;;;;30.83;18.70;;;8.10;99.90;;;;;;5006590;28;20085;-81
2023/12/19 11:16:21;;;;;;;32.57;20.07;;;8.20;99.90;;;;;;5007621;28;20033;-82
2023/12/19 11:18:55;;;;;;;35.07;20.90;;;8.10;99.90;;;;;;5024987;28;20018;-81
2023/12/19 11:21:22;;;;;;;;;;;8.20;99.90;;;;;;5007762;28;20513;-81
2023/12/19 11:24:09;;;;;;;34.47;20.63;;;8.20;99.90;;;;;;5007659;28;19937;-81
2023/12/19 11:26:45;;;;;;;36.47;21.30;;;8.10;99.90;;;;;;5007255;28;20037;-82
2023/12/19 11:29:46;;;;;;;37.73;20.40;;;8.10;99.90;;;;;;5007214;28;20057;-81
2023/12/19 11:32:27;;;;;;;31.83;20.37;;;8.20;99.90;;;;;;4996524;28;20030;-80
2023/12/19 11:35:13;;;;;;;35.30;19.77;;;8.10;99.90;;;;;;5006691;28;20059;-80
2023/12/19 11:37:41;;;;;;;34.43;20.13;;;8.10;99.90;;;;;;5006881;28;20038;-80
2023/12/19 11:40:10;;;;;;;34.93;19.77;;;8.20;99.90;;;;;;5006880;28;20164;-82
2023/12/19 11:42:39;;;;;;;36.07;20.10;;;8.20;99.90;;;;;;5004740;28;20033;-81
2023/12/19 11:45:20;;;;;;;38.87;21.20;;;8.20;99.90;;;;;;5014612;28;20034;-82
2023/12/19 11:47:49;;;;;;;36.17;21.67;;;8.20;99.90;;;;;;5003215;28;20039;-81
2023/12/19 11:50:40;;;;;;;29.00;18.23;;;8.20;99.90;;;;;;5003919;28;20026;-81
2023/12/19 11:53:06;;;;;;;33.67;20.43;;;8.20;99.90;;;;;;5003617;28;20034;-81
2023/12/19 11:55:32;;;;;;;34.57;18.10;;;8.20;99.90;;;;;;5003275;28;20023;-81
2023/12/19 11:58:08;;;;;;;30.73;19.30;;;8.20;99.90;;;;;;5003475;28;20038;-81
2023/12/19 12:00:33;;;;;;;29.83;18.27;;;8.20;99.90;;;;;;4986845;28;20034;-81
2023/12/19 12:03:09;;;;;;;29.03;17.63;;;8.20;99.90;;;;;;5005213;28;20053;-82
2023/12/19 12:05:35;;;;;;;25.27;16.87;;;8.20;99.90;;;;;;4987050;28;20018;-82
2023/12/19 12:08:00;;;;;;;30.67;18.67;;;8.20;99.90;;;;;;5003544;28;20061;-82
2023/12/19 12:10:27;;;;;;;32.87;18.17;;;8.30;99.90;;;;;;5003602;28;20127;-81
2023/12/19 12:12:55;;;;;;;30.30;18.63;;;8.20;99.90;;;;;;5003134;28;20026;-82
2023/12/19 12:15:22;;;;;;;27.23;17.00;;;8.30;99.90;;;;;;5004542;28;20595;-82
2023/12/19 12:18:06;;;;;;;24.63;13.67;;;8.20;99.90;;;;;;5002770;28;20066;-82
2023/12/19 12:20:33;;;;;;;27.33;17.10;;;8.30;99.90;;;;;;5003398;28;20097;-82
2023/12/19 12:22:59;;;;;;;26.90;16.63;;;8.20;99.90;;;;;;5003072;28;20033;-82
2023/12/19 12:25:25;;;;;;;25.53;15.67;;;8.20;99.90;;;;;;5002499;28;20073;-82
2023/12/19 12:27:55;;;;;;;25.30;15.77;;;8.30;99.90;;;;;;5002616;28;20054;-82
2023/12/19 12:30:31;;;;;;;29.57;17.13;;;8.30;99.90;;;;;;5002813;28;20030;-82
2023/12/19 12:32:56;;;;;;;26.87;15.97;;;8.20;99.90;;;;;;5003256;28;20030;-81
2023/12/19 12:35:24;;;;;;;25.63;15.67;;;8.30;99.90;;;;;;5002440;28;20029;-81
2023/12/19 12:38:00;;;;;;;28.70;15.50;;;8.30;99.90;;;;;;5002993;28;20026;-81
2023/12/19 12:40:26;;;;;;;23.03;14.00;;;8.20;99.90;;;;;;5002750;28;20022;-81